sensor_id;sensor_type;location;lat;lon;timestamp;temperature;humidity
3942;DHT22;1985;48.592;8.850;2023-05-14T00:00:18;14.00;99.90
3942;DHT22;1985;48.592;8.850;2023-05-14T00:02:44;14.00;99.90
3942;DHT22;1985;48.592;8.850;2023-05-14T00:05:09;14.00;99.90
3942;DHT22;1985;48.592;8.850;2023-05-14T00:07:35;14.00;99.90
3942;DHT22;1985;48.592;8.850;2023-05-14T00:10:01;14.00;99.90
3942;DHT22;1985;48.592;8.850;2023-05-14T00:12:26;14.00;99.90
3942;DHT22;1985;48.592;8.850;2023-05-14T00:14:52;14.00;99.90
3942;DHT22;1985;48.592;8.850;2023-05-14T00:17:18;14.00;99.90
3942;DHT22;1985;48.592;8.850;2023-05-14T00:19:44;14.00;99.90
3942;DHT22;1985;48.592;8.850;2023-05-14T00:22:10;14.00;99.90
3942;DHT22;1985;48.592;8.850;2023-05-14T00:24:36;14.00;99.90
3942;DHT22;1985;48.592;8.850;2023-05-14T00:27:02;14.00;99.90
3942;DHT22;1985;48.592;8.850;2023-05-14T00:29:28;14.00;99.90
3942;DHT22;1985;48.592;8.850;2023-05-14T00:31:54;14.00;99.90
3942;DHT22;1985;48.592;8.850;2023-05-14T00:34:20;14.00;99.90
3942;DHT22;1985;48.592;8.850;2023-05-14T00:36:45;14.00;99.90
3942;DHT22;1985;48.592;8.850;2023-05-14T00:39:12;14.00;99.90
3942;DHT22;1985;48.592;8.850;2023-05-14T00:41:38;14.00;99.90
3942;DHT22;1985;48.592;8.850;2023-05-14T00:44:04;14.00;99.90
3942;DHT22;1985;48.592;8.850;2023-05-14T00:46:29;14.00;99.90
3942;DHT22;1985;48.592;8.850;2023-05-14T00:48:56;14.00;99.90
3942;DHT22;1985;48.592;8.850;2023-05-14T00:51:22;13.90;99.90
3942;DHT22;1985;48.592;8.850;2023-05-14T00:53:49;13.90;99.90
3942;DHT22;1985;48.592;8.850;2023-05-14T00:56:16;13.90;99.90
3942;DHT22;1985;48.592;8.850;2023-05-14T00:58:42;13.90;99.90
3942;DHT22;1985;48.592;8.850;2023-05-14T01:01:08;13.90;99.90
3942;DHT22;1985;48.592;8.850;2023-05-14T01:03:34;13.90;99.90
3942;DHT22;1985;48.592;8.850;2023-05-14T01:17:01;14.00;99.90
3942;DHT22;1985;48.592;8.850;2023-05-14T01:19:41;14.00;99.90
3942;DHT22;1985;48.592;8.850;2023-05-14T01:22:07;14.00;99.90
3942;DHT22;1985;48.592;8.850;2023-05-14T01:24:33;14.00;99.90
3942;DHT22;1985;48.592;8.850;2023-05-14T01:29:31;14.00;99.90
3942;DHT22;1985;48.592;8.850;2023-05-14T01:31:59;14.00;99.90
3942;DHT22;1985;48.592;8.850;2023-05-14T01:34:27;14.00;99.90
3942;DHT22;1985;48.592;8.850;2023-05-14T01:36:56;13.90;99.90
3942;DHT22;1985;48.592;8.850;2023-05-14T01:39:22;13.90;99.90
3942;DHT22;1985;48.592;8.850;2023-05-14T01:41:50;13.90;99.90
3942;DHT22;1985;48.592;8.850;2023-05-14T01:44:17;14.00;99.90
3942;DHT22;1985;48.592;8.850;2023-05-14T01:46:43;14.00;99.90
3942;DHT22;1985;48.592;8.850;2023-05-14T01:49:08;14.00;99.90
3942;DHT22;1985;48.592;8.850;2023-05-14T01:51:34;13.90;99.90
3942;DHT22;1985;48.592;8.850;2023-05-14T01:54:00;13.90;99.90
3942;DHT22;1985;48.592;8.850;2023-05-14T01:56:25;13.90;99.90
3942;DHT22;1985;48.592;8.850;2023-05-14T01:58:51;13.90;99.90
3942;DHT22;1985;48.592;8.850;2023-05-14T02:01:17;13.90;99.90
3942;DHT22;1985;48.592;8.850;2023-05-14T02:03:42;14.00;99.90
3942;DHT22;1985;48.592;8.850;2023-05-14T02:06:08;14.00;99.90
3942;DHT22;1985;48.592;8.850;2023-05-14T02:08:33;14.00;99.90
3942;DHT22;1985;48.592;8.850;2023-05-14T02:10:59;14.00;99.90
3942;DHT22;1985;48.592;8.850;2023-05-14T02:13:25;13.90;99.90
3942;DHT22;1985;48.592;8.850;2023-05-14T02:15:51;13.90;99.90
3942;DHT22;1985;48.592;8.850;2023-05-14T02:18:16;13.90;99.90
3942;DHT22;1985;48.592;8.850;2023-05-14T02:20:42;13.80;99.90
3942;DHT22;1985;48.592;8.850;2023-05-14T02:23:08;13.70;99.90
3942;DHT22;1985;48.592;8.850;2023-05-14T02:25:34;13.70;99.90
3942;DHT22;1985;48.592;8.850;2023-05-14T02:28:00;13.70;99.90
3942;DHT22;1985;48.592;8.850;2023-05-14T02:30:25;13.70;99.90
3942;DHT22;1985;48.592;8.850;2023-05-14T02:32:51;13.70;99.90
3942;DHT22;1985;48.592;8.850;2023-05-14T02:35:16;13.70;99.90
3942;DHT22;1985;48.592;8.850;2023-05-14T02:37:42;13.70;99.90
3942;DHT22;1985;48.592;8.850;2023-05-14T02:40:08;13.60;99.90
3942;DHT22;1985;48.592;8.850;2023-05-14T02:42:34;13.70;99.90
3942;DHT22;1985;48.592;8.850;2023-05-14T02:44:59;13.70;99.90
3942;DHT22;1985;48.592;8.850;2023-05-14T02:47:25;13.70;99.90
3942;DHT22;1985;48.592;8.850;2023-05-14T02:49:51;13.70;99.90
3942;DHT22;1985;48.592;8.850;2023-05-14T02:52:16;13.60;99.90
3942;DHT22;1985;48.592;8.850;2023-05-14T02:54:42;13.60;99.90
3942;DHT22;1985;48.592;8.850;2023-05-14T02:57:07;13.60;99.90
3942;DHT22;1985;48.592;8.850;2023-05-14T02:59:33;13.50;99.90
3942;DHT22;1985;48.592;8.850;2023-05-14T03:01:59;13.60;99.90
3942;DHT22;1985;48.592;8.850;2023-05-14T03:04:24;13.50;99.90
3942;DHT22;1985;48.592;8.850;2023-05-14T03:06:50;13.50;99.90
3942;DHT22;1985;48.592;8.850;2023-05-14T03:09:15;13.40;99.90
3942;DHT22;1985;48.592;8.850;2023-05-14T03:11:41;13.40;99.90
3942;DHT22;1985;48.592;8.850;2023-05-14T03:14:07;13.40;99.90
3942;DHT22;1985;48.592;8.850;2023-05-14T03:16:32;13.30;99.90
3942;DHT22;1985;48.592;8.850;2023-05-14T03:18:58;13.30;99.90
3942;DHT22;1985;48.592;8.850;2023-05-14T03:21:23;13.30;99.90
3942;DHT22;1985;48.592;8.850;2023-05-14T03:23:50;13.30;99.90
3942;DHT22;1985;48.592;8.850;2023-05-14T03:26:16;13.30;99.90
3942;DHT22;1985;48.592;8.850;2023-05-14T03:28:43;13.30;99.90
3942;DHT22;1985;48.592;8.850;2023-05-14T03:31:08;13.30;99.90
3942;DHT22;1985;48.592;8.850;2023-05-14T03:33:34;13.30;99.90
3942;DHT22;1985;48.592;8.850;2023-05-14T03:36:00;13.30;99.90
3942;DHT22;1985;48.592;8.850;2023-05-14T03:38:25;13.20;99.90
3942;DHT22;1985;48.592;8.850;2023-05-14T03:40:51;13.20;99.90
3942;DHT22;1985;48.592;8.850;2023-05-14T03:43:17;13.20;99.90
3942;DHT22;1985;48.592;8.850;2023-05-14T03:45:42;13.20;99.90
3942;DHT22;1985;48.592;8.850;2023-05-14T03:48:08;13.20;99.90
3942;DHT22;1985;48.592;8.850;2023-05-14T03:50:34;13.10;99.90
3942;DHT22;1985;48.592;8.850;2023-05-14T03:52:59;13.00;99.90
3942;DHT22;1985;48.592;8.850;2023-05-14T03:55:25;13.10;99.90
3942;DHT22;1985;48.592;8.850;2023-05-14T03:57:51;13.10;99.90
3942;DHT22;1985;48.592;8.850;2023-05-14T04:00:16;13.10;99.90
3942;DHT22;1985;48.592;8.850;2023-05-14T04:02:42;13.10;99.90
3942;DHT22;1985;48.592;8.850;2023-05-14T04:05:08;13.10;99.90
3942;DHT22;1985;48.592;8.850;2023-05-14T04:07:34;13.20;99.90
3942;DHT22;1985;48.592;8.850;2023-05-14T04:09:59;13.10;99.90
3942;DHT22;1985;48.592;8.850;2023-05-14T04:12:25;13.20;99.90
3942;DHT22;1985;48.592;8.850;2023-05-14T04:14:51;13.20;99.90
3942;DHT22;1985;48.592;8.850;2023-05-14T04:17:17;13.20;99.90
3942;DHT22;1985;48.592;8.850;2023-05-14T04:19:42;13.10;99.90
3942;DHT22;1985;48.592;8.850;2023-05-14T04:22:08;13.10;99.90
3942;DHT22;1985;48.592;8.850;2023-05-14T04:24:34;13.10;99.90
3942;DHT22;1985;48.592;8.850;2023-05-14T04:26:59;13.20;99.90
3942;DHT22;1985;48.592;8.850;2023-05-14T04:29:25;13.20;99.90
3942;DHT22;1985;48.592;8.850;2023-05-14T04:31:50;13.20;99.90
3942;DHT22;1985;48.592;8.850;2023-05-14T04:34:16;13.10;99.90
3942;DHT22;1985;48.592;8.850;2023-05-14T04:36:42;13.20;99.90
3942;DHT22;1985;48.592;8.850;2023-05-14T04:39:07;13.20;99.90
3942;DHT22;1985;48.592;8.850;2023-05-14T04:41:36;13.20;99.90
3942;DHT22;1985;48.592;8.850;2023-05-14T04:44:02;13.20;99.90
3942;DHT22;1985;48.592;8.850;2023-05-14T04:46:28;13.20;99.90
3942;DHT22;1985;48.592;8.850;2023-05-14T04:48:53;13.30;99.90
3942;DHT22;1985;48.592;8.850;2023-05-14T04:51:19;13.30;99.90
3942;DHT22;1985;48.592;8.850;2023-05-14T04:53:44;13.30;99.90
3942;DHT22;1985;48.592;8.850;2023-05-14T04:56:10;13.40;99.90
3942;DHT22;1985;48.592;8.850;2023-05-14T04:58:36;13.40;99.90
3942;DHT22;1985;48.592;8.850;2023-05-14T05:01:03;13.40;99.90
3942;DHT22;1985;48.592;8.850;2023-05-14T05:03:29;13.40;99.90
3942;DHT22;1985;48.592;8.850;2023-05-14T05:05:55;13.40;99.90
3942;DHT22;1985;48.592;8.850;2023-05-14T05:08:21;13.40;99.90
3942;DHT22;1985;48.592;8.850;2023-05-14T05:10:47;13.40;99.90
3942;DHT22;1985;48.592;8.850;2023-05-14T05:13:12;13.40;99.90
3942;DHT22;1985;48.592;8.850;2023-05-14T05:15:39;13.40;99.90
3942;DHT22;1985;48.592;8.850;2023-05-14T05:18:05;13.10;99.90
3942;DHT22;1985;48.592;8.850;2023-05-14T05:20:31;13.10;99.90
3942;DHT22;1985;48.592;8.850;2023-05-14T05:22:56;13.20;99.90
3942;DHT22;1985;48.592;8.850;2023-05-14T05:25:22;13.20;99.90
3942;DHT22;1985;48.592;8.850;2023-05-14T05:27:48;13.20;99.90
3942;DHT22;1985;48.592;8.850;2023-05-14T05:30:13;13.30;99.90
3942;DHT22;1985;48.592;8.850;2023-05-14T05:32:39;13.20;99.90
3942;DHT22;1985;48.592;8.850;2023-05-14T05:35:05;13.10;99.90
3942;DHT22;1985;48.592;8.850;2023-05-14T05:37:30;13.20;99.90
3942;DHT22;1985;48.592;8.850;2023-05-14T05:39:56;13.30;99.90
3942;DHT22;1985;48.592;8.850;2023-05-14T05:42:22;13.30;99.90
3942;DHT22;1985;48.592;8.850;2023-05-14T05:44:47;13.40;99.90
3942;DHT22;1985;48.592;8.850;2023-05-14T05:47:13;13.40;99.90
3942;DHT22;1985;48.592;8.850;2023-05-14T05:49:38;13.50;99.90
3942;DHT22;1985;48.592;8.850;2023-05-14T05:52:04;13.60;99.90
3942;DHT22;1985;48.592;8.850;2023-05-14T05:54:30;13.70;99.90
3942;DHT22;1985;48.592;8.850;2023-05-14T05:56:57;13.70;99.90
3942;DHT22;1985;48.592;8.850;2023-05-14T05:59:23;13.80;99.90
3942;DHT22;1985;48.592;8.850;2023-05-14T06:01:49;13.80;99.90
3942;DHT22;1985;48.592;8.850;2023-05-14T06:04:14;13.90;99.90
3942;DHT22;1985;48.592;8.850;2023-05-14T06:06:40;14.00;99.90
3942;DHT22;1985;48.592;8.850;2023-05-14T06:09:06;14.00;99.90
3942;DHT22;1985;48.592;8.850;2023-05-14T06:11:33;14.10;99.90
3942;DHT22;1985;48.592;8.850;2023-05-14T06:13:59;14.20;99.90
3942;DHT22;1985;48.592;8.850;2023-05-14T06:16:24;14.20;99.90
3942;DHT22;1985;48.592;8.850;2023-05-14T06:18:50;14.20;99.90
3942;DHT22;1985;48.592;8.850;2023-05-14T06:21:17;14.20;99.90
3942;DHT22;1985;48.592;8.850;2023-05-14T06:23:43;14.20;99.90
3942;DHT22;1985;48.592;8.850;2023-05-14T06:26:09;14.20;99.90
3942;DHT22;1985;48.592;8.850;2023-05-14T06:28:34;14.30;99.90
3942;DHT22;1985;48.592;8.850;2023-05-14T06:31:00;14.30;99.90
3942;DHT22;1985;48.592;8.850;2023-05-14T06:33:25;14.30;99.90
3942;DHT22;1985;48.592;8.850;2023-05-14T06:36:02;14.30;99.90
3942;DHT22;1985;48.592;8.850;2023-05-14T06:38:28;14.30;99.90
3942;DHT22;1985;48.592;8.850;2023-05-14T06:40:54;14.30;99.90
3942;DHT22;1985;48.592;8.850;2023-05-14T06:43:20;14.30;99.90
3942;DHT22;1985;48.592;8.850;2023-05-14T06:45:49;14.20;99.90
3942;DHT22;1985;48.592;8.850;2023-05-14T06:48:16;14.10;99.90
3942;DHT22;1985;48.592;8.850;2023-05-14T06:50:46;14.00;99.90
3942;DHT22;1985;48.592;8.850;2023-05-14T06:53:12;13.90;99.90
3942;DHT22;1985;48.592;8.850;2023-05-14T06:55:38;13.80;99.90
3942;DHT22;1985;48.592;8.850;2023-05-14T06:58:07;13.80;99.90
3942;DHT22;1985;48.592;8.850;2023-05-14T07:00:33;13.70;99.90
3942;DHT22;1985;48.592;8.850;2023-05-14T07:02:58;13.60;99.90
3942;DHT22;1985;48.592;8.850;2023-05-14T07:05:24;13.50;99.90
3942;DHT22;1985;48.592;8.850;2023-05-14T07:07:50;13.40;99.90
3942;DHT22;1985;48.592;8.850;2023-05-14T07:10:16;13.30;99.90
3942;DHT22;1985;48.592;8.850;2023-05-14T07:12:41;13.40;99.90
3942;DHT22;1985;48.592;8.850;2023-05-14T07:15:08;13.40;99.90
3942;DHT22;1985;48.592;8.850;2023-05-14T07:17:33;13.50;99.90
3942;DHT22;1985;48.592;8.850;2023-05-14T07:19:59;13.50;99.90
3942;DHT22;1985;48.592;8.850;2023-05-14T07:22:25;13.60;99.90
3942;DHT22;1985;48.592;8.850;2023-05-14T07:24:50;13.60;99.90
3942;DHT22;1985;48.592;8.850;2023-05-14T07:27:16;13.60;99.90
3942;DHT22;1985;48.592;8.850;2023-05-14T07:29:42;13.70;99.90
3942;DHT22;1985;48.592;8.850;2023-05-14T07:32:08;13.90;99.90
3942;DHT22;1985;48.592;8.850;2023-05-14T07:34:34;14.00;99.90
3942;DHT22;1985;48.592;8.850;2023-05-14T07:37:00;14.20;99.90
3942;DHT22;1985;48.592;8.850;2023-05-14T07:39:26;14.30;99.90
3942;DHT22;1985;48.592;8.850;2023-05-14T07:41:51;14.30;99.90
3942;DHT22;1985;48.592;8.850;2023-05-14T07:44:19;14.30;99.90
3942;DHT22;1985;48.592;8.850;2023-05-14T07:46:45;14.40;99.90
3942;DHT22;1985;48.592;8.850;2023-05-14T07:49:10;14.40;99.90
3942;DHT22;1985;48.592;8.850;2023-05-14T07:51:36;14.40;99.90
3942;DHT22;1985;48.592;8.850;2023-05-14T07:54:02;14.40;99.90
3942;DHT22;1985;48.592;8.850;2023-05-14T07:56:27;14.50;99.90
3942;DHT22;1985;48.592;8.850;2023-05-14T07:58:53;14.50;99.90
3942;DHT22;1985;48.592;8.850;2023-05-14T08:01:18;14.50;99.90
3942;DHT22;1985;48.592;8.850;2023-05-14T08:03:44;14.60;99.90
3942;DHT22;1985;48.592;8.850;2023-05-14T08:06:10;14.70;99.90
3942;DHT22;1985;48.592;8.850;2023-05-14T08:08:36;14.70;99.90
3942;DHT22;1985;48.592;8.850;2023-05-14T08:11:02;14.80;99.90
3942;DHT22;1985;48.592;8.850;2023-05-14T08:13:28;14.80;99.90
3942;DHT22;1985;48.592;8.850;2023-05-14T08:15:54;14.80;99.90
3942;DHT22;1985;48.592;8.850;2023-05-14T08:18:19;14.90;99.90
3942;DHT22;1985;48.592;8.850;2023-05-14T08:20:45;14.90;99.90
3942;DHT22;1985;48.592;8.850;2023-05-14T08:23:11;14.90;99.90
3942;DHT22;1985;48.592;8.850;2023-05-14T08:25:37;15.00;99.90
3942;DHT22;1985;48.592;8.850;2023-05-14T08:28:02;15.10;99.90
3942;DHT22;1985;48.592;8.850;2023-05-14T08:30:29;15.10;99.90
3942;DHT22;1985;48.592;8.850;2023-05-14T08:32:54;15.20;99.90
3942;DHT22;1985;48.592;8.850;2023-05-14T08:35:20;15.20;99.90
3942;DHT22;1985;48.592;8.850;2023-05-14T08:37:45;15.20;99.90
3942;DHT22;1985;48.592;8.850;2023-05-14T08:40:11;15.30;99.90
3942;DHT22;1985;48.592;8.850;2023-05-14T08:42:38;15.40;99.90
3942;DHT22;1985;48.592;8.850;2023-05-14T08:45:22;15.50;99.90
3942;DHT22;1985;48.592;8.850;2023-05-14T08:47:50;15.70;99.90
3942;DHT22;1985;48.592;8.850;2023-05-14T08:50:16;15.80;99.90
3942;DHT22;1985;48.592;8.850;2023-05-14T08:52:43;15.80;99.90
3942;DHT22;1985;48.592;8.850;2023-05-14T08:55:09;15.90;99.90
3942;DHT22;1985;48.592;8.850;2023-05-14T08:57:36;16.10;99.90
3942;DHT22;1985;48.592;8.850;2023-05-14T09:00:03;16.10;99.90
3942;DHT22;1985;48.592;8.850;2023-05-14T09:02:39;16.20;99.90
3942;DHT22;1985;48.592;8.850;2023-05-14T09:05:05;16.30;99.90
3942;DHT22;1985;48.592;8.850;2023-05-14T09:07:35;16.40;99.90
3942;DHT22;1985;48.592;8.850;2023-05-14T09:10:01;16.50;99.90
3942;DHT22;1985;48.592;8.850;2023-05-14T09:12:27;16.70;99.90
3942;DHT22;1985;48.592;8.850;2023-05-14T09:14:53;16.60;99.90
3942;DHT22;1985;48.592;8.850;2023-05-14T09:17:18;16.70;99.90
3942;DHT22;1985;48.592;8.850;2023-05-14T09:19:45;16.70;99.90
3942;DHT22;1985;48.592;8.850;2023-05-14T09:22:14;16.70;99.90
3942;DHT22;1985;48.592;8.850;2023-05-14T09:24:41;16.80;99.90
3942;DHT22;1985;48.592;8.850;2023-05-14T09:27:07;16.80;99.90
3942;DHT22;1985;48.592;8.850;2023-05-14T09:29:34;17.00;99.90
3942;DHT22;1985;48.592;8.850;2023-05-14T09:32:00;17.10;99.90
3942;DHT22;1985;48.592;8.850;2023-05-14T09:34:33;17.30;99.90
3942;DHT22;1985;48.592;8.850;2023-05-14T09:37:04;17.40;99.90
3942;DHT22;1985;48.592;8.850;2023-05-14T09:39:32;17.50;99.90
3942;DHT22;1985;48.592;8.850;2023-05-14T09:41:58;17.70;99.90
3942;DHT22;1985;48.592;8.850;2023-05-14T09:44:24;17.80;99.90
3942;DHT22;1985;48.592;8.850;2023-05-14T09:46:50;17.90;99.90
3942;DHT22;1985;48.592;8.850;2023-05-14T09:49:16;18.10;99.90
3942;DHT22;1985;48.592;8.850;2023-05-14T09:51:42;18.30;99.90
3942;DHT22;1985;48.592;8.850;2023-05-14T09:54:08;18.50;99.90
3942;DHT22;1985;48.592;8.850;2023-05-14T09:56:35;18.70;99.90
3942;DHT22;1985;48.592;8.850;2023-05-14T09:59:02;18.80;99.90
3942;DHT22;1985;48.592;8.850;2023-05-14T10:01:28;18.80;99.90
3942;DHT22;1985;48.592;8.850;2023-05-14T10:03:55;18.80;99.90
3942;DHT22;1985;48.592;8.850;2023-05-14T10:06:32;18.70;99.90
3942;DHT22;1985;48.592;8.850;2023-05-14T10:09:03;18.70;99.90
3942;DHT22;1985;48.592;8.850;2023-05-14T10:11:36;18.60;99.90
3942;DHT22;1985;48.592;8.850;2023-05-14T10:14:12;18.60;99.90
3942;DHT22;1985;48.592;8.850;2023-05-14T10:17:00;18.60;99.90
3942;DHT22;1985;48.592;8.850;2023-05-14T10:19:29;18.60;99.90
3942;DHT22;1985;48.592;8.850;2023-05-14T10:22:03;18.60;99.90
3942;DHT22;1985;48.592;8.850;2023-05-14T10:24:29;18.50;99.90
3942;DHT22;1985;48.592;8.850;2023-05-14T10:26:55;18.50;99.90
3942;DHT22;1985;48.592;8.850;2023-05-14T10:29:36;18.50;99.90
3942;DHT22;1985;48.592;8.850;2023-05-14T10:32:06;18.70;99.90
3942;DHT22;1985;48.592;8.850;2023-05-14T10:34:37;19.10;99.90
3942;DHT22;1985;48.592;8.850;2023-05-14T10:37:08;19.50;99.90
3942;DHT22;1985;48.592;8.850;2023-05-14T10:39:49;19.70;99.90
3942;DHT22;1985;48.592;8.850;2023-05-14T10:42:33;19.70;99.90
3942;DHT22;1985;48.592;8.850;2023-05-14T10:45:07;19.40;99.90
3942;DHT22;1985;48.592;8.850;2023-05-14T10:47:38;19.00;99.90
3942;DHT22;1985;48.592;8.850;2023-05-14T10:50:09;18.50;99.90
3942;DHT22;1985;48.592;8.850;2023-05-14T10:52:35;17.90;99.90
3942;DHT22;1985;48.592;8.850;2023-05-14T10:55:03;17.40;99.90
3942;DHT22;1985;48.592;8.850;2023-05-14T10:57:33;17.00;99.90
3942;DHT22;1985;48.592;8.850;2023-05-14T11:00:00;16.60;99.90
3942;DHT22;1985;48.592;8.850;2023-05-14T11:02:28;16.20;99.90
3942;DHT22;1985;48.592;8.850;2023-05-14T11:04:57;16.00;99.90
3942;DHT22;1985;48.592;8.850;2023-05-14T11:07:27;15.80;99.90
3942;DHT22;1985;48.592;8.850;2023-05-14T11:09:58;15.70;99.90
3942;DHT22;1985;48.592;8.850;2023-05-14T11:12:25;15.50;99.90
3942;DHT22;1985;48.592;8.850;2023-05-14T11:14:52;15.30;99.90
3942;DHT22;1985;48.592;8.850;2023-05-14T11:17:18;14.80;99.90
3942;DHT22;1985;48.592;8.850;2023-05-14T11:19:44;14.40;99.90
3942;DHT22;1985;48.592;8.850;2023-05-14T11:22:10;14.00;99.90
3942;DHT22;1985;48.592;8.850;2023-05-14T11:24:39;13.70;99.90
3942;DHT22;1985;48.592;8.850;2023-05-14T11:27:08;13.70;99.90
3942;DHT22;1985;48.592;8.850;2023-05-14T11:29:36;13.90;99.90
3942;DHT22;1985;48.592;8.850;2023-05-14T11:32:05;14.20;99.90
3942;DHT22;1985;48.592;8.850;2023-05-14T11:34:32;14.90;99.90
3942;DHT22;1985;48.592;8.850;2023-05-14T11:37:04;15.40;99.90
3942;DHT22;1985;48.592;8.850;2023-05-14T11:39:31;15.60;99.90
3942;DHT22;1985;48.592;8.850;2023-05-14T11:42:12;15.30;99.90
3942;DHT22;1985;48.592;8.850;2023-05-14T11:44:40;15.10;99.90
3942;DHT22;1985;48.592;8.850;2023-05-14T11:47:06;14.80;99.90
3942;DHT22;1985;48.592;8.850;2023-05-14T11:49:32;14.50;99.90
3942;DHT22;1985;48.592;8.850;2023-05-14T11:52:01;14.30;99.90
3942;DHT22;1985;48.592;8.850;2023-05-14T11:54:28;14.10;99.90
3942;DHT22;1985;48.592;8.850;2023-05-14T11:56:55;14.10;99.90
3942;DHT22;1985;48.592;8.850;2023-05-14T11:59:28;14.20;99.90
3942;DHT22;1985;48.592;8.850;2023-05-14T12:01:55;14.90;99.90
3942;DHT22;1985;48.592;8.850;2023-05-14T12:04:21;16.10;99.90
3942;DHT22;1985;48.592;8.850;2023-05-14T12:06:51;17.20;99.90
3942;DHT22;1985;48.592;8.850;2023-05-14T12:09:20;17.80;99.90
3942;DHT22;1985;48.592;8.850;2023-05-14T12:11:46;18.10;99.90
3942;DHT22;1985;48.592;8.850;2023-05-14T12:14:17;18.70;99.90
3942;DHT22;1985;48.592;8.850;2023-05-14T12:16:44;19.40;99.90
3942;DHT22;1985;48.592;8.850;2023-05-14T12:19:11;19.50;99.90
3942;DHT22;1985;48.592;8.850;2023-05-14T12:21:39;19.60;99.90
3942;DHT22;1985;48.592;8.850;2023-05-14T12:24:12;19.80;99.90
3942;DHT22;1985;48.592;8.850;2023-05-14T12:26:37;20.40;99.90
3942;DHT22;1985;48.592;8.850;2023-05-14T12:29:04;20.50;99.90
3942;DHT22;1985;48.592;8.850;2023-05-14T12:31:34;20.50;99.90
3942;DHT22;1985;48.592;8.850;2023-05-14T12:34:04;20.70;99.90
3942;DHT22;1985;48.592;8.850;2023-05-14T12:36:29;20.40;99.90
3942;DHT22;1985;48.592;8.850;2023-05-14T12:39:01;20.00;99.90
3942;DHT22;1985;48.592;8.850;2023-05-14T12:41:31;19.60;99.90
3942;DHT22;1985;48.592;8.850;2023-05-14T12:43:58;19.50;99.90
3942;DHT22;1985;48.592;8.850;2023-05-14T12:46:25;19.30;99.90
3942;DHT22;1985;48.592;8.850;2023-05-14T12:48:51;18.90;99.90
3942;DHT22;1985;48.592;8.850;2023-05-14T12:51:17;18.50;99.90
3942;DHT22;1985;48.592;8.850;2023-05-14T12:53:42;18.00;99.90
3942;DHT22;1985;48.592;8.850;2023-05-14T12:56:08;17.80;99.90
3942;DHT22;1985;48.592;8.850;2023-05-14T12:58:34;17.70;99.90
3942;DHT22;1985;48.592;8.850;2023-05-14T13:01:00;17.60;99.90
3942;DHT22;1985;48.592;8.850;2023-05-14T13:03:25;17.50;99.90
3942;DHT22;1985;48.592;8.850;2023-05-14T13:05:52;17.50;99.90
3942;DHT22;1985;48.592;8.850;2023-05-14T13:08:19;17.40;99.90
3942;DHT22;1985;48.592;8.850;2023-05-14T13:10:46;17.40;99.90
3942;DHT22;1985;48.592;8.850;2023-05-14T13:13:14;17.30;99.90
3942;DHT22;1985;48.592;8.850;2023-05-14T13:15:40;17.40;99.90
3942;DHT22;1985;48.592;8.850;2023-05-14T13:18:07;17.50;99.90
3942;DHT22;1985;48.592;8.850;2023-05-14T13:20:33;17.60;99.90
3942;DHT22;1985;48.592;8.850;2023-05-14T13:22:59;17.70;99.90
3942;DHT22;1985;48.592;8.850;2023-05-14T13:25:25;17.70;99.90
3942;DHT22;1985;48.592;8.850;2023-05-14T13:27:50;17.70;99.90
3942;DHT22;1985;48.592;8.850;2023-05-14T13:30:19;17.80;99.90
3942;DHT22;1985;48.592;8.850;2023-05-14T13:32:45;17.80;99.90
3942;DHT22;1985;48.592;8.850;2023-05-14T13:35:11;17.60;99.90
3942;DHT22;1985;48.592;8.850;2023-05-14T13:37:37;17.60;99.90
3942;DHT22;1985;48.592;8.850;2023-05-14T13:40:03;17.50;99.90
3942;DHT22;1985;48.592;8.850;2023-05-14T13:42:33;17.30;99.90
3942;DHT22;1985;48.592;8.850;2023-05-14T13:44:59;17.20;99.90
3942;DHT22;1985;48.592;8.850;2023-05-14T13:47:25;17.10;99.90
3942;DHT22;1985;48.592;8.850;2023-05-14T13:49:54;16.90;99.90
3942;DHT22;1985;48.592;8.850;2023-05-14T13:52:19;16.60;99.90
3942;DHT22;1985;48.592;8.850;2023-05-14T13:54:46;16.10;99.90
3942;DHT22;1985;48.592;8.850;2023-05-14T13:57:12;15.80;99.90
3942;DHT22;1985;48.592;8.850;2023-05-14T13:59:37;15.40;99.90
3942;DHT22;1985;48.592;8.850;2023-05-14T14:02:03;14.80;99.90
3942;DHT22;1985;48.592;8.850;2023-05-14T14:04:29;14.50;99.90
3942;DHT22;1985;48.592;8.850;2023-05-14T14:06:55;14.20;99.90
3942;DHT22;1985;48.592;8.850;2023-05-14T14:09:21;14.10;99.90
3942;DHT22;1985;48.592;8.850;2023-05-14T14:11:47;14.10;99.90
3942;DHT22;1985;48.592;8.850;2023-05-14T14:14:12;14.00;99.90
3942;DHT22;1985;48.592;8.850;2023-05-14T14:16:38;14.10;99.90
3942;DHT22;1985;48.592;8.850;2023-05-14T14:19:04;14.20;99.90
3942;DHT22;1985;48.592;8.850;2023-05-14T14:21:29;14.20;99.90
3942;DHT22;1985;48.592;8.850;2023-05-14T14:23:56;13.70;99.90
3942;DHT22;1985;48.592;8.850;2023-05-14T14:26:21;13.50;99.90
3942;DHT22;1985;48.592;8.850;2023-05-14T14:28:47;13.40;99.90
3942;DHT22;1985;48.592;8.850;2023-05-14T14:31:13;13.20;99.90
3942;DHT22;1985;48.592;8.850;2023-05-14T14:33:38;13.10;99.90
3942;DHT22;1985;48.592;8.850;2023-05-14T14:36:05;13.20;99.90
3942;DHT22;1985;48.592;8.850;2023-05-14T14:38:30;13.30;99.90
3942;DHT22;1985;48.592;8.850;2023-05-14T14:40:56;13.50;99.90
3942;DHT22;1985;48.592;8.850;2023-05-14T14:43:23;13.70;99.90
3942;DHT22;1985;48.592;8.850;2023-05-14T14:45:49;14.00;99.90
3942;DHT22;1985;48.592;8.850;2023-05-14T14:50:47;14.10;99.90
3942;DHT22;1985;48.592;8.850;2023-05-14T14:53:12;14.20;99.90
3942;DHT22;1985;48.592;8.850;2023-05-14T14:55:38;14.10;99.90
3942;DHT22;1985;48.592;8.850;2023-05-14T14:58:03;14.00;99.90
3942;DHT22;1985;48.592;8.850;2023-05-14T15:00:29;14.10;99.90
3942;DHT22;1985;48.592;8.850;2023-05-14T15:02:55;14.20;99.90
3942;DHT22;1985;48.592;8.850;2023-05-14T15:05:20;14.30;99.90
3942;DHT22;1985;48.592;8.850;2023-05-14T15:07:46;14.30;99.90
3942;DHT22;1985;48.592;8.850;2023-05-14T15:10:11;14.40;99.90
3942;DHT22;1985;48.592;8.850;2023-05-14T15:12:37;14.40;99.90
3942;DHT22;1985;48.592;8.850;2023-05-14T15:15:03;14.50;99.90
3942;DHT22;1985;48.592;8.850;2023-05-14T15:17:28;14.60;99.90
3942;DHT22;1985;48.592;8.850;2023-05-14T15:19:54;14.80;99.90
3942;DHT22;1985;48.592;8.850;2023-05-14T15:22:20;14.80;99.90
3942;DHT22;1985;48.592;8.850;2023-05-14T15:24:46;14.90;99.90
3942;DHT22;1985;48.592;8.850;2023-05-14T15:27:11;15.00;99.90
3942;DHT22;1985;48.592;8.850;2023-05-14T15:29:37;15.00;99.90
3942;DHT22;1985;48.592;8.850;2023-05-14T15:32:03;15.00;99.90
3942;DHT22;1985;48.592;8.850;2023-05-14T15:34:28;15.00;99.90
3942;DHT22;1985;48.592;8.850;2023-05-14T15:36:54;15.10;99.90
3942;DHT22;1985;48.592;8.850;2023-05-14T15:39:19;15.20;99.90
3942;DHT22;1985;48.592;8.850;2023-05-14T15:41:45;15.20;99.90
3942;DHT22;1985;48.592;8.850;2023-05-14T15:44:11;15.20;99.90
3942;DHT22;1985;48.592;8.850;2023-05-14T15:46:36;15.30;99.90
3942;DHT22;1985;48.592;8.850;2023-05-14T15:49:02;15.40;99.90
3942;DHT22;1985;48.592;8.850;2023-05-14T15:51:28;15.50;99.90
3942;DHT22;1985;48.592;8.850;2023-05-14T15:53:53;15.70;99.90
3942;DHT22;1985;48.592;8.850;2023-05-14T15:56:20;15.80;99.90
3942;DHT22;1985;48.592;8.850;2023-05-14T15:58:47;15.90;99.90
3942;DHT22;1985;48.592;8.850;2023-05-14T16:01:13;16.00;99.90
3942;DHT22;1985;48.592;8.850;2023-05-14T16:03:38;16.10;99.90
3942;DHT22;1985;48.592;8.850;2023-05-14T16:06:04;16.20;99.90
3942;DHT22;1985;48.592;8.850;2023-05-14T16:08:30;16.30;99.90
3942;DHT22;1985;48.592;8.850;2023-05-14T16:10:55;16.20;99.90
3942;DHT22;1985;48.592;8.850;2023-05-14T16:13:21;16.30;99.90